Saint Louis, MO

6:02 PM CST on March 04, 2015 (GMT -0600)
Ross Ave | Change Station
CLOSE
Current Station
Personal Weather Station
Location: St. Louis, MO
Elevation: 551 ft
Nearby Weather Stations

Elev 551 ft 38.68 °N, 90.46 °W | Updated 13 seconds ago

Overcast
Overcast
22.5 °F
Feels Like 22 °F
N
2.3
Wind Variable Wind from North
Gusts 2.3 mph

Today
High -- | Low -- °F
--% Chance of Precip.
Yesterday
High -- | Low -- °F
Precip. -- in
6:30 AM 5:57 PM
Waxing Gibbous, 99% visible
Pressure 30.34 in
Visibility 10.0 miles
Clouds Mostly Cloudy 10000 ft
Overcast 18000 ft
Windchill 22 °F
Dew Point 8 °F
Humidity 54%
Rainfall 0.03 in
Snow Depth Not available.
UV 0 out of 12
Pollen 1.90 out of 12
Air Quality Not available.
Flu Activity Not available.
METAR KSTL 042351Z 36010KT 10SM BKN100 OVC180 M04/M15 A3029 RMK AO2 SLP272 60000 T10441150 11039 21050 53015

More Conditions Fewer Conditions

Pressure 30.34 in
Visibility 10.0 miles
Clouds Mostly Cloudy 10000 ft
Overcast 18000 ft
Windchill 22 °F
Dew Point 8 °F
Humidity 54%
Rainfall 0.03 in
Snow Depth Not available.
UV 0 out of 12
Pollen 1.90 out of 12
Air Quality Not available.
Flu Activity Not available.
METAR KSTL 042351Z 36010KT 10SM BKN100 OVC180 M04/M15 A3029 RMK AO2 SLP272 60000 T10441150 11039 21050 53015

More Conditions Fewer Conditions

10-Day Weather Forecast

Almanac

Astronomy

Mar. 04, 2015 Rise Set
Actual Time
Civil Twilight
Nautical Twilight
Astronomical Twilight
Moon
Length of Visible Light
Length of Day
Tomorrow will be .
, % of the Moon is Illuminated

Today's Extremes

State Highs State Lows

Community

WunderPhotos

Upload Photos

1,802,605 photos uploaded!

WunderBlogs® & News

Nearby

Air Quality

  Air Quality AQ Index Pollutant
Not available.

Snow Depth

Station Depth Elevation

Earthquake Activity

City Distance Mag. Time & Date
Minimum magnitude displayed is 2.5.

Coastal Water Temperatures

Place Temperature

Nearby Weather Stations